Time;durP1;ratioP1;P1;durP2;ratioP2;P2;SDS_P1;SDS_P2;PMS_P1;PMS_P2;Temp;Humidity;BMP_temperature;BMP_pressure;BME280_temperature;BME280_humidity;BME280_pressure;Samples;Min_cycle;Max_cycle;Signal;HPM_P1;HPM_P2
2022/07/15 00:02:05;;;;;;;4.57;2.53;;;;;;;-145.69;87.71;71386.47;5074933;28;20661;-78
2022/07/15 00:04:31;;;;;;;9.43;2.70;;;;;;;-145.69;87.59;71378.50;5074826;28;20256;-77
2022/07/15 00:06:58;;;;;;;6.80;2.60;;;;;;;-145.69;84.95;71344.69;5074861;28;20198;-78
2022/07/15 00:12:06;;;;;;;6.13;2.97;;;;;;;-145.69;86.19;71340.72;5074598;28;20199;-78
2022/07/15 00:14:32;;;;;;;7.03;2.80;;;;;;;-145.69;88.07;71360.59;5074574;28;20275;-78
2022/07/15 00:16:59;;;;;;;5.53;2.90;;;;;;;-145.69;89.96;71370.56;5074794;28;20198;-78
2022/07/15 00:19:25;;;;;;;5.82;2.60;;;;;;;-145.69;89.11;71376.53;5074364;28;20202;-78
2022/07/15 00:21:52;;;;;;;3.67;2.63;;;;;;;-145.69;88.57;71372.53;5074916;28;20206;-78
2022/07/15 00:24:18;;;;;;;5.70;2.85;;;;;;;-145.69;88.66;71378.50;5074614;28;20205;-78
2022/07/15 00:26:46;;;;;;;6.88;3.05;;;;;;;-145.69;88.48;71378.50;5074437;28;20213;-78
2022/07/15 00:29:12;;;;;;;6.00;2.67;;;;;;;-145.69;87.83;71392.44;5073948;28;20214;-78
2022/07/15 00:31:39;;;;;;;5.47;2.63;;;;;;;-145.69;86.95;71402.41;5074466;28;20206;-77
2022/07/15 00:34:05;;;;;;;7.30;2.70;;;;;;;-145.69;86.34;71418.31;5074241;28;20222;-78
2022/07/15 00:36:32;;;;;;;7.22;2.88;;;;;;;-145.69;87.21;71424.28;5074560;28;20202;-78
2022/07/15 00:38:58;;;;;;;4.10;2.47;;;;;;;-145.69;89.89;71428.25;5074123;28;20202;-78
2022/07/15 00:41:25;;;;;;;8.00;3.10;;;;;;;-145.69;91.38;71448.16;5074324;28;20203;-78
2022/07/15 00:43:53;;;;;;;3.85;2.85;;;;;;;-145.69;91.45;71456.13;5073779;28;20433;-78
2022/07/15 00:46:20;;;;;;;4.25;2.42;;;;;;;-145.69;90.18;71466.06;5074141;28;20198;-78
2022/07/15 00:48:47;;;;;;;7.82;3.30;;;;;;;-145.69;89.58;71454.13;5073994;28;20206;-77
2022/07/15 00:51:13;;;;;;;7.10;3.00;;;;;;;-145.69;90.55;71454.13;5073887;28;20207;-78
2022/07/15 00:53:43;;;;;;;6.57;2.97;;;;;;;-145.69;91.01;71472.03;5074348;28;20205;-77
2022/07/15 00:56:10;;;;;;;5.43;2.78;;;;;;;-145.69;90.87;71491.94;5073952;28;20232;-77
2022/07/15 00:58:38;;;;;;;6.05;2.85;;;;;;;-145.69;91.33;71505.88;5073980;28;20676;-78
2022/07/15 01:01:08;;;;;;;7.13;2.87;;;;;;;-145.69;93.28;71505.88;5073404;28;20195;-78
2022/07/15 01:03:35;;;;;;;6.18;2.90;;;;;;;-145.69;93.91;71513.81;5074076;28;20199;-78
2022/07/15 01:06:02;;;;;;;5.63;2.50;;;;;;;-145.69;94.76;71529.75;5073840;28;20199;-78
2022/07/15 01:08:28;;;;;;;5.20;2.80;;;;;;;-145.69;93.54;71529.75;5073818;28;20198;-78
2022/07/15 01:10:55;;;;;;;6.77;3.20;;;;;;;-145.69;98.53;71529.75;5073534;28;20207;-78
2022/07/15 01:13:23;;;;;;;6.27;3.03;;;;;;;-145.69;97.90;71541.69;5073566;28;20198;-78
2022/07/15 01:15:50;;;;;;;4.65;2.70;;;;;;;-145.69;97.97;71555.63;5073710;28;20280;-78
2022/07/15 01:18:18;;;;;;;5.50;3.00;;;;;;;-145.69;96.61;71567.56;5073566;28;20457;-78
2022/07/15 01:20:50;;;;;;;6.37;2.77;;;;;;;-145.69;95.97;71573.53;5073108;28;20195;-78
2022/07/15 01:23:18;;;;;;;4.80;2.75;;;;;;;-145.69;95.71;71563.56;5073542;28;20248;-78
2022/07/15 01:25:44;;;;;;;6.00;3.40;;;;;;;-145.69;94.81;71563.56;5053868;28;20199;-78
2022/07/15 01:28:14;;;;;;;8.68;3.08;;;;;;;-145.69;93.66;71541.69;5052705;28;20475;-79
2022/07/15 01:30:42;;;;;;;5.40;2.90;;;;;;;-145.69;94.45;71545.66;5062901;28;20203;-79
2022/07/15 01:33:09;;;;;;;7.87;2.83;;;;;;;-145.69;92.93;71541.69;5052949;28;20206;-78
2022/07/15 01:35:38;;;;;;;5.83;3.00;;;;;;;-145.69;92.88;71553.63;5053224;28;20231;-79
2022/07/15 01:38:06;;;;;;;6.87;2.77;;;;;;;-145.69;93.34;71557.59;5053250;28;20536;-78
2022/07/15 01:40:33;;;;;;;4.18;2.58;;;;;;;-145.69;93.74;71563.56;5053053;28;20539;-78
2022/07/15 01:42:59;;;;;;;4.70;2.73;;;;;;;-145.69;95.66;71565.56;5067950;28;20206;-78
2022/07/15 01:45:26;;;;;;;6.07;3.10;;;;;;;-145.69;96.09;71585.47;5072850;28;20653;-78
2022/07/15 01:47:53;;;;;;;4.70;3.13;;;;;;;-145.69;100.00;71597.41;5073161;28;20210;-78
2022/07/15 01:50:19;;;;;;;7.87;3.07;;;;;;;-145.69;99.83;71599.41;5072878;28;20234;-79
2022/07/15 01:52:46;;;;;;;6.53;3.40;;;;;;;-145.69;99.27;71601.38;5072978;28;20285;-78
2022/07/15 01:55:16;;;;;;;6.80;3.23;;;;;;;-145.69;99.74;71607.34;5072232;28;20229;-78
2022/07/15 01:57:43;;;;;;;6.47;3.83;;;;;;;-145.69;100.00;71621.28;5068784;28;20199;-78
2022/07/15 02:00:12;;;;;;;10.23;2.90;;;;;;;-145.69;96.53;71597.41;5052747;28;20206;-78
2022/07/15 02:02:39;;;;;;;12.37;3.70;;;;;;;-145.69;99.12;71607.34;5052184;28;20203;-79
2022/07/15 02:05:06;;;;;;;5.60;3.00;;;;;;;-145.69;99.92;71619.28;5055792;28;20196;-78
2022/07/15 02:07:33;;;;;;;5.23;3.17;;;;;;;-145.69;98.02;71613.31;5072864;28;20206;-78
2022/07/15 02:09:59;;;;;;;6.87;2.87;;;;;;;-145.69;100.00;71613.31;5072814;28;20691;-78
2022/07/15 02:12:27;;;;;;;6.07;3.20;;;;;;;-145.69;100.00;71611.34;5072979;28;20206;-79
2022/07/15 02:14:53;;;;;;;7.73;3.27;;;;;;;-145.69;100.00;71609.34;5072906;28;20317;-78
2022/07/15 02:17:20;;;;;;;7.00;3.30;;;;;;;-145.69;100.00;71609.34;5072806;28;20209;-78
2022/07/15 02:19:48;;;;;;;12.80;3.57;;;;;;;-145.69;100.00;71621.28;5072655;28;20676;-79
2022/07/15 02:22:15;;;;;;;6.20;3.50;;;;;;;-145.69;100.00;71623.28;5072702;28;20615;-79
2022/07/15 02:24:42;;;;;;;6.67;3.30;;;;;;;-145.69;100.00;71617.31;5072922;28;20249;-79
2022/07/15 02:27:08;;;;;;;5.80;3.03;;;;;;;-145.69;100.00;71625.25;5072807;28;20205;-79
2022/07/15 02:29:36;;;;;;;8.73;3.20;;;;;;;-145.69;100.00;71623.28;5072262;28;20233;-79
2022/07/15 02:32:05;;;;;;;17.87;3.83;;;;;;;-145.69;100.00;71623.28;5072634;28;20215;-79
2022/07/15 02:34:32;;;;;;;6.00;3.23;;;;;;;-145.69;100.00;71629.25;5072458;28;20675;-78
2022/07/15 02:36:58;;;;;;;6.38;3.25;;;;;;;-145.69;100.00;71633.22;5072466;28;20392;-78
2022/07/15 02:39:27;;;;;;;9.17;3.30;;;;;;;-145.69;100.00;71631.25;5072798;28;20203;-79
2022/07/15 02:41:54;;;;;;;6.57;2.60;;;;;;;-145.69;100.00;71639.19;5072387;28;20210;-79
2022/07/15 02:44:20;;;;;;;4.17;2.80;;;;;;;-145.69;100.00;71645.16;5071871;28;20202;-79
2022/07/15 02:46:48;;;;;;;4.23;3.07;;;;;;;-145.69;100.00;71651.13;5072422;28;20628;-78
2022/07/15 02:49:15;;;;;;;4.47;2.70;;;;;;;-145.69;100.00;71673.03;5071984;28;20231;-78
2022/07/15 02:51:41;;;;;;;10.37;3.50;;;;;;;-145.69;100.00;71680.97;5072567;28;20210;-79
2022/07/15 02:54:08;;;;;;;5.87;3.10;;;;;;;-145.69;100.00;71686.97;5072093;28;20581;-78
2022/07/15 02:56:34;;;;;;;5.90;3.13;;;;;;;-145.69;100.00;71690.94;5072428;28;20246;-79
2022/07/15 02:59:00;;;;;;;4.20;2.87;;;;;;;-145.69;100.00;71688.94;5072452;28;20202;-78
2022/07/15 03:01:28;;;;;;;7.23;3.03;;;;;;;-145.69;100.00;71690.94;5072173;28;20206;-79
2022/07/15 03:03:57;;;;;;;10.67;3.03;;;;;;;-145.69;100.00;71690.94;5072259;28;20203;-79
2022/07/15 03:06:23;;;;;;;9.00;3.53;;;;;;;-145.69;100.00;71694.91;5071901;28;20195;-79
2022/07/15 03:08:51;;;;;;;8.67;3.27;;;;;;;-145.69;100.00;71696.91;5072509;28;20194;-80
2022/07/15 03:11:18;;;;;;;4.90;2.97;;;;;;;-145.69;100.00;71694.91;5072301;28;20662;-80
2022/07/15 03:13:44;;;;;;;6.20;3.33;;;;;;;-145.69;100.00;71704.88;5072972;28;20437;-80
2022/07/15 03:16:11;;;;;;;9.40;3.37;;;;;;;-145.69;100.00;71724.75;5075758;28;20226;-80
2022/07/15 03:18:38;;;;;;;8.40;3.20;;;;;;;-145.69;100.00;71748.66;5075346;28;20199;-80
2022/07/15 03:21:06;;;;;;;7.63;3.30;;;;;;;-145.69;100.00;71748.66;5075753;28;20730;-79
2022/07/15 03:23:32;;;;;;;9.97;3.43;;;;;;;-145.69;100.00;71748.66;5075982;28;20199;-80
2022/07/15 03:25:59;;;;;;;9.70;3.00;;;;;;;-145.69;100.00;71756.59;5075881;28;20199;-80
2022/07/15 03:28:25;;;;;;;8.40;3.33;;;;;;;-145.69;100.00;71772.53;5075794;28;20210;-79
2022/07/15 03:30:52;;;;;;;7.33;3.47;;;;;;;-145.69;100.00;71780.50;5075394;28;20573;-80
2022/07/15 03:33:18;;;;;;;10.40;3.47;;;;;;;-145.69;100.00;71782.47;5075473;28;20207;-80
2022/07/15 03:35:45;;;;;;;7.23;3.40;;;;;;;-145.69;100.00;71778.50;5075607;28;20242;-80
2022/07/15 03:38:13;;;;;;;4.83;3.10;;;;;;;-145.69;100.00;71782.47;5075706;28;20202;-80
2022/07/15 03:40:39;;;;;;;7.13;3.20;;;;;;;-145.69;100.00;71800.38;5075645;28;20207;-80
2022/07/15 03:43:06;;;;;;;6.87;3.67;;;;;;;-145.69;100.00;71808.34;5075267;28;20199;-80
2022/07/15 03:45:32;;;;;;;6.83;3.63;;;;;;;-145.69;100.00;71804.38;5075272;28;20203;-80
2022/07/15 03:47:59;;;;;;;7.10;3.47;;;;;;;-145.69;100.00;71796.41;5075064;28;20503;-79
2022/07/15 03:50:25;;;;;;;5.87;3.07;;;;;;;-145.69;100.00;71784.47;5075227;28;20231;-80
2022/07/15 03:52:52;;;;;;;6.23;2.90;;;;;;;-145.69;100.00;71800.38;5068797;28;20202;-80
2022/07/15 03:55:20;;;;;;;5.53;3.10;;;;;;;-145.69;100.00;71808.34;5068764;28;20225;-80
2022/07/15 03:57:48;;;;;;;8.20;3.77;;;;;;;-145.69;100.00;71820.28;5074701;28;20575;-80
2022/07/15 04:00:16;;;;;;;7.67;3.10;;;;;;;-145.69;100.00;71818.31;5074788;28;20240;-80
2022/07/15 04:02:43;;;;;;;7.23;3.43;;;;;;;-145.69;100.00;71812.31;5075283;28;20202;-79
2022/07/15 04:05:10;;;;;;;10.50;3.10;;;;;;;-145.69;100.00;71800.38;5075008;28;20195;-80
2022/07/15 04:07:36;;;;;;;6.30;3.33;;;;;;;-145.69;100.00;71808.34;5075090;28;20198;-80
2022/07/15 04:10:03;;;;;;;6.07;3.60;;;;;;;-145.69;100.00;71816.31;5075039;28;20205;-80
2022/07/15 04:12:31;;;;;;;5.90;3.17;;;;;;;-145.69;100.00;71828.25;5074790;28;20210;-79
2022/07/15 04:14:57;;;;;;;7.03;3.20;;;;;;;-145.69;100.00;71820.28;5075010;28;20211;-80
2022/07/15 04:17:24;;;;;;;11.13;3.13;;;;;;;-145.69;100.00;71804.38;5074708;28;20195;-80
2022/07/15 04:19:50;;;;;;;6.60;3.00;;;;;;;-145.69;100.00;71816.31;5074756;28;20203;-80
2022/07/15 04:22:17;;;;;;;10.30;3.07;;;;;;;-145.69;100.00;71816.31;5074676;28;20198;-80
2022/07/15 04:24:44;;;;;;;8.63;3.43;;;;;;;-145.69;100.00;71820.28;5073966;28;20199;-80
2022/07/15 04:27:10;;;;;;;5.43;2.93;;;;;;;-145.69;100.00;71820.28;5074485;28;20313;-80
2022/07/15 04:29:38;;;;;;;5.73;2.73;;;;;;;-145.69;100.00;71816.31;5074208;28;20202;-80
2022/07/15 04:32:05;;;;;;;4.43;2.90;;;;;;;-145.69;100.00;71814.31;5074604;28;20210;-80
2022/07/15 04:34:32;;;;;;;7.47;3.03;;;;;;;-145.69;100.00;71810.34;5074637;28;20203;-80
2022/07/15 04:37:05;;;;;;;5.70;2.97;;;;;;;-145.69;100.00;71800.38;5074367;28;20231;-80
2022/07/15 04:39:33;;;;;;;4.23;2.80;;;;;;;-145.69;100.00;71792.44;5074147;28;20557;-80
2022/07/15 04:42:00;;;;;;;5.83;2.90;;;;;;;-145.69;100.00;71784.47;5074301;28;20306;-80
2022/07/15 04:44:26;;;;;;;3.10;2.47;;;;;;;-145.69;100.00;71778.50;5074490;28;20194;-80
2022/07/15 04:46:57;;;;;;;4.37;2.73;;;;;;;-145.69;100.00;71768.53;5074221;28;20277;-80
2022/07/15 04:52:07;;;;;;;6.10;2.97;;;;;;;-145.69;100.00;71746.66;5074202;28;20257;-79
2022/07/15 04:54:34;;;;;;;10.07;3.07;;;;;;;-145.69;100.00;71730.72;5074317;28;20222;-80
2022/07/15 04:57:00;;;;;;;11.17;3.30;;;;;;;-145.69;100.00;71712.81;5074138;28;20230;-79
2022/07/15 04:59:27;;;;;;;5.10;2.90;;;;;;;-145.69;100.00;71704.88;5073594;28;20441;-79
2022/07/15 05:01:54;;;;;;;8.27;3.10;;;;;;;-145.69;100.00;71690.94;5073903;28;20553;-80
2022/07/15 05:04:22;;;;;;;5.77;2.90;;;;;;;-145.69;100.00;71684.97;5073676;28;20600;-79
2022/07/15 05:06:48;;;;;;;4.90;2.70;;;;;;;-145.69;100.00;71675.00;5073631;28;20260;-80
2022/07/15 05:09:15;;;;;;;6.40;2.80;;;;;;;-145.69;100.00;71661.09;5073487;28;20198;-79
2022/07/15 05:11:41;;;;;;;5.30;2.70;;;;;;;-145.69;100.00;71657.09;5073762;28;20289;-80
2022/07/15 05:14:08;;;;;;;4.73;2.63;;;;;;;-145.69;100.00;71645.16;5073687;28;20218;-80
2022/07/15 05:16:37;;;;;;;4.83;2.73;;;;;;;-145.69;100.00;71633.22;5073564;28;20225;-80
2022/07/15 05:19:06;;;;;;;7.87;2.80;;;;;;;-145.69;100.00;71617.31;5073266;28;20554;-80
2022/07/15 05:21:34;;;;;;;6.03;3.00;;;;;;;-145.69;100.00;71599.41;5073404;28;20203;-80
2022/07/15 05:24:00;;;;;;;4.83;2.87;;;;;;;-145.69;100.00;71585.47;5073512;28;20196;-80
2022/07/15 05:26:27;;;;;;;5.15;2.35;;;;;;;-145.69;100.00;71565.56;5073533;28;20194;-80
2022/07/15 05:28:53;;;;;;;5.53;2.10;;;;;;;-145.69;99.50;71549.66;5072860;28;20198;-80
2022/07/15 05:31:20;;;;;;;5.53;2.60;;;;;;;-145.69;99.17;71535.72;5073066;28;20673;-80
2022/07/15 05:33:46;;;;;;;4.60;2.50;;;;;;;-145.69;98.52;71525.78;5073130;28;20253;-80
2022/07/15 05:36:13;;;;;;;4.80;2.50;;;;;;;-145.69;97.71;71515.81;5073382;28;20219;-80
2022/07/15 05:38:41;;;;;;;4.95;2.45;;;;;;;-145.69;96.92;71493.94;5073177;28;20662;-80
2022/07/15 05:41:10;;;;;;;4.30;2.45;;;;;;;-145.69;95.73;71462.09;5072672;28;20231;-80
2022/07/15 05:43:45;;;;;;;14.73;2.60;;;;;;;-145.69;93.04;71438.22;5072780;28;20203;-80
2022/07/15 05:46:14;;;;;;;6.15;2.08;;;;;;;-145.69;89.65;71368.56;5073156;28;20233;-80
2022/07/15 05:48:41;;;;;;;9.82;2.20;;;;;;;-145.69;85.15;71292.94;5061870;28;20661;-80
2022/07/15 05:51:07;;;;;;;7.78;2.47;;;;;;;-145.69;82.58;71227.28;5053268;28;20206;-80
2022/07/15 05:53:34;;;;;;;4.72;2.10;;;;;;;-145.69;73.50;71137.75;5068743;28;20201;-81
2022/07/15 05:56:03;;;;;;;7.07;1.90;;;;;;;-145.69;72.94;71038.25;5072915;28;20231;-80
2022/07/15 05:58:31;;;;;;;8.02;2.00;;;;;;;-145.69;72.24;70964.66;5073050;28;20214;-79
2022/07/15 06:00:58;;;;;;;4.32;1.90;;;;;;;-145.69;67.92;70899.00;5072846;28;20300;-80
2022/07/15 06:03:24;;;;;;;3.85;1.83;;;;;;;-145.69;64.09;70825.38;5073182;28;20592;-78
2022/07/15 06:05:51;;;;;;;6.28;2.00;;;;;;;-145.69;60.15;70787.56;5072877;28;20273;-78
2022/07/15 06:08:17;;;;;;;6.45;1.75;;;;;;;-145.69;58.31;70789.56;5072575;28;20430;-78
2022/07/15 06:10:44;;;;;;;5.40;2.00;;;;;;;-145.69;58.03;70791.56;5072900;28;20585;-78
2022/07/15 06:13:12;;;;;;;6.10;1.60;;;;;;;-145.69;55.43;70833.34;5072875;28;20210;-78
2022/07/15 06:15:39;;;;;;;2.78;1.40;;;;;;;-145.69;53.14;70771.66;5072360;28;20198;-78
2022/07/15 06:18:09;;;;;;;3.47;1.77;;;;;;;-145.69;53.19;70777.63;5072168;28;20661;-78
2022/07/15 06:20:37;;;;;;;5.18;1.80;;;;;;;-145.69;56.15;70819.41;5072840;28;20256;-78
2022/07/15 06:23:04;;;;;;;3.42;1.85;;;;;;;-145.69;59.11;70827.38;5072584;28;20661;-78
2022/07/15 06:25:32;;;;;;;5.60;1.98;;;;;;;-145.69;54.00;70769.66;5072429;28;20209;-78
2022/07/15 06:28:01;;;;;;;4.70;1.60;;;;;;;-145.69;54.48;70739.81;5071862;28;20202;-78
2022/07/15 06:30:30;;;;;;;4.20;1.70;;;;;;;-145.69;56.53;70745.78;5072866;28;20275;-78
2022/07/15 06:32:57;;;;;;;3.13;1.58;;;;;;;-145.69;52.51;70761.72;5072517;28;20210;-77
2022/07/15 06:35:24;;;;;;;2.92;1.67;;;;;;;-145.69;54.37;70745.78;5072679;28;20214;-78
2022/07/15 06:37:51;;;;;;;3.08;1.52;;;;;;;-145.69;52.64;70759.72;5072455;28;20268;-78
2022/07/15 06:40:18;;;;;;;4.25;1.80;;;;;;;-145.69;51.11;70737.84;5068239;28;20200;-78
2022/07/15 06:42:46;;;;;;;5.43;2.13;;;;;;;-145.69;50.95;70739.81;5052327;28;20199;-78
2022/07/15 06:45:13;;;;;;;3.53;1.70;;;;;;;-145.69;53.18;70785.59;5052653;28;20210;-78
2022/07/15 06:47:42;;;;;;;4.55;1.52;;;;;;;-145.69;53.01;70765.69;5052513;28;20210;-78
2022/07/15 06:50:10;;;;;;;4.53;1.70;;;;;;;-145.69;52.21;70731.88;5056074;28;20227;-78
2022/07/15 06:52:36;;;;;;;3.17;1.90;;;;;;;-145.69;51.16;70708.00;5061597;28;20195;-78
2022/07/15 06:55:04;;;;;;;4.35;1.73;;;;;;;-145.69;53.33;70706.00;5076363;28;20198;-78
2022/07/15 06:57:30;;;;;;;4.72;1.92;;;;;;;-145.69;55.46;70725.91;5076462;28;20289;-80
2022/07/15 07:00:01;;;;;;;4.82;2.00;;;;;;;-145.69;55.48;70783.59;5076426;28;20205;-80
2022/07/15 07:02:28;;;;;;;4.55;1.60;;;;;;;-145.69;54.55;70799.50;5076338;28;20231;-80
2022/07/15 07:04:55;;;;;;;4.70;1.67;;;;;;;-145.69;52.87;70783.59;5076145;28;20278;-80
2022/07/15 07:07:22;;;;;;;4.53;1.88;;;;;;;-145.69;51.13;70807.47;5076013;28;20658;-80
2022/07/15 07:09:48;;;;;;;4.00;1.50;;;;;;;-145.69;50.88;70851.25;5076030;28;20207;-80
2022/07/15 07:12:18;;;;;;;6.45;1.83;;;;;;;-145.69;53.50;70853.22;5076127;28;20205;-80
2022/07/15 07:14:47;;;;;;;5.03;1.75;;;;;;;-145.69;53.64;70813.44;5076248;28;20206;-80
2022/07/15 07:17:13;;;;;;;3.70;1.73;;;;;;;-145.69;51.12;70845.28;5075675;28;20233;-81
2022/07/15 07:19:40;;;;;;;5.60;1.52;;;;;;;-145.69;52.01;70787.56;5075836;28;20701;-80
2022/07/15 07:22:08;;;;;;;4.15;1.92;;;;;;;-145.69;50.60;70767.69;5075478;28;20202;-78
2022/07/15 07:24:34;;;;;;;2.53;1.42;;;;;;;-145.69;49.83;70745.78;5075822;28;20206;-81
2022/07/15 07:27:02;;;;;;;5.93;2.30;;;;;;;-145.69;49.23;70769.66;5075836;28;20565;-81
2022/07/15 07:29:28;;;;;;;3.53;1.38;;;;;;;-145.69;48.15;70759.72;5075671;28;20203;-80
2022/07/15 07:31:55;;;;;;;3.88;1.60;;;;;;;-145.69;48.14;70733.84;5075465;28;20199;-80
2022/07/15 07:34:21;;;;;;;4.43;1.60;;;;;;;-145.69;48.16;70777.63;5075728;28;20249;-80
2022/07/15 07:36:48;;;;;;;5.40;1.63;;;;;;;-145.69;48.43;70747.78;5075343;28;20316;-80
2022/07/15 07:39:16;;;;;;;5.35;1.75;;;;;;;-145.69;48.32;70696.06;5075799;28;20261;-80
2022/07/15 07:41:42;;;;;;;4.18;1.88;;;;;;;-145.69;45.82;70682.13;5075357;28;20548;-80
2022/07/15 07:44:09;;;;;;;4.10;1.75;;;;;;;-145.69;46.82;70690.09;5075627;28;20206;-78
2022/07/15 07:46:40;;;;;;;6.03;1.95;;;;;;;-145.69;49.63;70634.38;5072332;28;20603;-80
2022/07/15 07:49:07;;;;;;;6.88;1.83;;;;;;;-145.69;47.37;70668.19;5055322;28;20238;-78
2022/07/15 07:51:33;;;;;;;3.67;2.22;;;;;;;-145.69;48.11;70640.34;5055298;28;20980;-79
2022/07/15 07:54:00;;;;;;;4.63;1.65;;;;;;;-145.69;48.94;70636.38;5069891;28;20455;-81
2022/07/15 07:56:28;;;;;;;4.53;1.65;;;;;;;-145.69;50.07;70606.53;5075219;28;20223;-81
2022/07/15 07:58:54;;;;;;;4.82;1.67;;;;;;;-145.69;46.39;70586.63;5074863;28;20206;-81
2022/07/15 08:01:21;;;;;;;3.22;1.63;;;;;;;-145.69;45.07;70580.66;5073535;28;20206;-80
2022/07/15 08:03:50;;;;;;;4.63;1.90;;;;;;;-145.69;47.00;70542.88;5074720;28;20205;-78
2022/07/15 08:06:16;;;;;;;5.90;1.65;;;;;;;-145.69;48.69;70550.81;5075088;28;20256;-79
2022/07/15 08:08:43;;;;;;;4.13;1.70;;;;;;;-145.69;43.05;70546.84;5071918;28;20205;-77
2022/07/15 08:11:09;;;;;;;6.65;1.77;;;;;;;-145.69;42.18;70495.13;5074962;28;20202;-79
2022/07/15 08:13:39;;;;;;;3.83;1.60;;;;;;;-145.69;41.55;70586.63;5074898;28;20206;-79
2022/07/15 08:16:06;;;;;;;4.53;1.75;;;;;;;-145.69;49.38;70602.56;5074197;28;20203;-77
2022/07/15 08:18:35;;;;;;;5.00;2.15;;;;;;;-145.69;48.52;70612.50;5074568;28;20234;-80
2022/07/15 08:21:03;;;;;;;3.72;1.98;;;;;;;-145.69;46.92;70574.69;5074908;28;20198;-78
2022/07/15 08:23:31;;;;;;;5.78;1.90;;;;;;;-145.69;47.17;70554.81;5075075;28;20209;-78
2022/07/15 08:25:57;;;;;;;7.88;2.25;;;;;;;-145.69;47.48;70582.66;5074440;28;20285;-77
2022/07/15 08:28:24;;;;;;;8.65;2.05;;;;;;;-145.69;48.96;70628.41;5074741;28;20671;-77
2022/07/15 08:30:52;;;;;;;5.78;2.30;;;;;;;-145.69;47.81;70638.34;5072469;28;20438;-77
2022/07/15 08:33:18;;;;;;;6.22;1.85;;;;;;;-145.69;47.86;70640.34;5074026;28;20203;-76
2022/07/15 08:35:45;;;;;;;7.55;2.30;;;;;;;-145.69;46.35;70618.47;5074392;28;20199;-77
2022/07/15 08:38:12;;;;;;;9.25;2.42;;;;;;;-145.69;43.98;70562.75;5074178;28;20234;-77
2022/07/15 08:40:39;;;;;;;5.97;2.17;;;;;;;-145.69;43.57;70556.78;5073756;28;20673;-77
2022/07/15 08:43:07;;;;;;;9.40;2.67;;;;;;;-145.69;45.62;70552.81;5054107;28;20574;-77
2022/07/15 08:45:36;;;;;;;7.10;2.13;;;;;;;-145.69;46.26;70548.84;5054179;28;20231;-77
2022/07/15 08:48:05;;;;;;;4.13;1.92;;;;;;;-145.69;45.54;70564.75;5054476;28;20207;-83
2022/07/15 08:50:33;;;;;;;5.90;2.00;;;;;;;-145.69;45.52;70614.47;5054110;28;20254;-78
2022/07/15 08:53:00;;;;;;;5.00;2.08;;;;;;;-145.69;44.97;70558.78;5055468;28;20203;-78
2022/07/15 08:55:26;;;;;;;4.05;1.90;;;;;;;-145.69;42.13;70515.00;5074315;28;20210;-77
2022/07/15 08:57:54;;;;;;;5.38;2.00;;;;;;;-145.69;37.57;70459.31;5073456;28;20724;-78
2022/07/15 09:00:23;;;;;;;5.80;1.88;;;;;;;-145.69;40.21;70427.47;5063029;28;20214;-79
2022/07/15 09:02:49;;;;;;;7.53;2.10;;;;;;;-145.69;39.83;70429.47;5053373;28;20203;-79
2022/07/15 09:05:26;;;;;;;5.88;2.15;;;;;;;-145.69;38.50;70477.22;5060396;28;20209;-79
2022/07/15 09:07:59;;;;;;;3.95;2.15;;;;;;;-145.69;41.76;70548.84;5070229;28;20202;-79
2022/07/15 09:10:41;;;;;;;6.63;2.20;;;;;;;-145.69;43.05;70556.78;5073716;28;20203;-78
2022/07/15 09:13:07;;;;;;;7.53;2.40;;;;;;;-145.69;41.13;70526.94;5073076;28;20194;-79
2022/07/15 09:15:36;;;;;;;5.03;2.28;;;;;;;-145.69;43.48;70560.78;5073856;28;20260;-80
2022/07/15 09:18:11;;;;;;;4.65;1.90;;;;;;;-145.69;41.59;70538.88;5073275;28;20312;-78
2022/07/15 09:20:40;;;;;;;5.70;2.10;;;;;;;-145.69;41.82;70542.88;5073668;28;20612;-79
2022/07/15 09:23:08;;;;;;;10.95;2.20;;;;;;;-145.69;41.98;70511.03;5072841;28;20195;-79
2022/07/15 09:25:35;;;;;;;4.47;1.92;;;;;;;-145.69;41.03;70483.19;5073894;28;20298;-80
2022/07/15 09:28:03;;;;;;;4.25;2.00;;;;;;;-145.69;42.90;70461.31;5073552;28;20245;-78
2022/07/15 09:33:35;;;;;;;2.78;1.90;;;;;;;-145.69;39.15;70479.19;5072796;28;20197;-78
2022/07/15 09:36:20;;;;;;;6.38;2.30;;;;;;;-145.69;40.34;70499.09;5073331;28;20198;-78
2022/07/15 09:38:49;;;;;;;4.20;2.20;;;;;;;-145.69;40.98;70554.81;5062845;28;20777;-78
2022/07/15 09:41:28;;;;;;;11.13;2.83;;;;;;;-145.69;43.79;70554.81;5053316;28;20199;-78
2022/07/15 09:43:58;;;;;;;4.25;1.98;;;;;;;-145.69;41.21;70526.94;5071600;28;20259;-79
2022/07/15 09:46:27;;;;;;;7.82;2.13;;;;;;;-145.69;41.44;70534.91;5073133;28;20195;-78
2022/07/15 09:48:54;;;;;;;7.95;2.30;;;;;;;-145.69;41.90;70526.94;5072977;28;20241;-78
2022/07/15 09:51:23;;;;;;;6.18;1.70;;;;;;;-145.69;41.77;70532.91;5073204;28;20198;-78
2022/07/15 09:53:51;;;;;;;3.65;1.90;;;;;;;-145.69;43.38;70503.06;5072876;28;20199;-79
2022/07/15 09:56:23;;;;;;;2.92;1.88;;;;;;;-145.69;43.99;70487.16;5072984;28;20198;-78
2022/07/15 09:58:50;;;;;;;3.88;2.05;;;;;;;-145.69;42.64;70540.88;5073170;28;20226;-78
2022/07/15 10:01:17;;;;;;;8.70;2.58;;;;;;;-145.69;44.84;70554.81;5072945;28;20199;-78
2022/07/15 10:03:43;;;;;;;5.20;2.20;;;;;;;-145.69;44.64;70554.81;5072189;28;20195;-78
2022/07/15 10:06:14;;;;;;;4.00;2.10;;;;;;;-145.69;43.29;70534.91;5073021;28;20199;-78
2022/07/15 10:08:47;;;;;;;4.85;2.20;;;;;;;-145.69;42.23;70538.88;5072505;28;20662;-79
2022/07/15 10:11:13;;;;;;;4.63;2.10;;;;;;;-145.69;42.02;70590.63;5072696;28;20226;-78
2022/07/15 10:14:01;;;;;;;7.30;2.28;;;;;;;-145.69;43.73;70590.63;5072773;28;20551;-78
2022/07/15 10:17:08;;;;;;;7.20;2.67;;;;;;;-145.69;43.35;70550.81;5073118;28;20194;-78
2022/07/15 10:19:51;;;;;;;6.28;2.63;;;;;;;-145.69;41.15;70522.97;5074022;28;20202;-78
2022/07/15 10:22:30;;;;;;;11.32;2.33;;;;;;;-145.69;42.10;70522.97;5072867;28;20198;-78
2022/07/15 10:25:10;;;;;;;8.02;2.55;;;;;;;-145.69;43.66;70536.91;5072326;28;20653;-78
2022/07/15 10:27:55;;;;;;;9.95;2.55;;;;;;;-145.69;43.10;70550.81;5072662;28;20210;-78
2022/07/15 10:30:24;;;;;;;4.82;2.30;;;;;;;-145.69;42.26;70590.63;5072789;28;20209;-78
2022/07/15 10:33:16;;;;;;;4.07;2.13;;;;;;;-145.69;42.67;70564.75;5072222;28;20257;-78
2022/07/15 10:35:47;;;;;;;7.60;2.38;;;;;;;-145.69;44.50;70530.94;5072754;28;20213;-78
2022/07/15 10:38:29;;;;;;;7.28;2.50;;;;;;;-145.69;43.58;70481.19;5072006;28;20707;-78
2022/07/15 10:41:06;;;;;;;4.22;2.10;;;;;;;-145.69;42.48;70405.59;5073009;28;20203;-78
2022/07/15 10:43:44;;;;;;;5.32;2.20;;;;;;;-145.69;44.27;70353.88;5072534;28;20202;-78
2022/07/15 10:46:20;;;;;;;4.80;2.03;;;;;;;-145.69;40.00;70375.75;5072526;28;20203;-77
2022/07/15 10:48:48;;;;;;;5.33;2.30;;;;;;;-145.69;40.41;70449.38;5071478;28;20434;-78
2022/07/15 10:51:46;;;;;;;5.47;2.42;;;;;;;-145.69;41.41;70417.53;5071944;28;20206;-82
2022/07/15 10:54:44;;;;;;;10.82;2.58;;;;;;;-145.69;40.15;70409.56;5072776;28;20669;-80
2022/07/15 10:57:13;;;;;;;5.30;2.15;;;;;;;-145.69;39.36;70383.72;5072937;28;20574;-78
2022/07/15 10:59:47;;;;;;;5.15;1.95;;;;;;;-145.69;40.12;70363.81;5072242;28;20199;-79
2022/07/15 11:02:16;;;;;;;9.55;2.92;;;;;;;-145.69;39.88;70395.66;5072446;28;20202;-79
2022/07/15 11:04:44;;;;;;;4.38;2.13;;;;;;;-145.69;39.37;70403.59;5071666;28;20604;-79
2022/07/15 11:07:38;;;;;;;5.22;1.98;;;;;;;-145.69;40.00;70447.38;5072141;28;20210;-78
2022/07/15 11:10:22;;;;;;;4.85;2.30;;;;;;;-145.69;40.18;70517.00;5057977;28;20199;-78
2022/07/15 11:13:05;;;;;;;4.18;2.53;;;;;;;-145.69;43.48;70481.19;5072622;28;20202;-77
2022/07/15 11:15:33;;;;;;;3.67;2.10;;;;;;;-145.69;40.01;70407.59;5052110;28;20294;-78
2022/07/15 11:18:00;;;;;;;4.80;1.90;;;;;;;-145.69;42.80;70328.00;5052300;28;20223;-78
2022/07/15 11:20:33;;;;;;;6.00;2.17;;;;;;;-145.69;40.73;70268.34;5052077;28;20199;-79
2022/07/15 11:23:02;;;;;;;5.63;1.92;;;;;;;-145.69;39.62;70256.41;5052178;28;20605;-78
2022/07/15 11:25:31;;;;;;;7.00;2.30;;;;;;;-145.69;41.03;70200.69;5057560;28;20198;-78
2022/07/15 11:28:03;;;;;;;7.47;2.40;;;;;;;-145.69;39.79;70154.94;5072208;28;20206;-78
2022/07/15 11:30:33;;;;;;;5.35;2.05;;;;;;;-145.69;38.59;70125.09;5072350;28;20198;-78